createdAt,value
2023-11-25T00:01:15.663Z,2.70
2023-11-25T00:03:42.934Z,4.07
2023-11-25T00:06:10.080Z,3.23
2023-11-25T00:08:37.201Z,2.40
2023-11-25T00:11:12.122Z,2.20
2023-11-25T00:13:45.289Z,2.70
2023-11-25T00:16:12.377Z,3.27
2023-11-25T00:18:40.814Z,3.00
2023-11-25T00:21:07.953Z,3.63
2023-11-25T00:23:35.262Z,2.60
2023-11-25T00:26:02.385Z,3.13
2023-11-25T00:28:29.565Z,2.57
2023-11-25T00:30:56.705Z,2.50
2023-11-25T00:33:23.833Z,2.40
2023-11-25T00:35:52.296Z,2.80
2023-11-25T00:38:19.381Z,2.40
2023-11-25T00:40:46.491Z,2.13
2023-11-25T00:43:13.687Z,3.63
2023-11-25T00:45:40.813Z,2.30
2023-11-25T00:48:08.223Z,3.17
2023-11-25T00:50:35.498Z,3.40
2023-11-25T00:53:03.873Z,3.00
2023-11-25T00:55:31.112Z,3.53
2023-11-25T00:57:58.765Z,3.13
2023-11-25T01:00:25.882Z,2.43
2023-11-25T01:02:53.742Z,2.77
2023-11-25T01:05:20.982Z,2.63
2023-11-25T01:07:48.082Z,2.90
2023-11-25T01:10:16.708Z,3.13
2023-11-25T01:12:43.846Z,2.90
2023-11-25T01:15:11.566Z,4.20
2023-11-25T01:17:38.650Z,2.83
2023-11-25T01:20:06.490Z,3.63
2023-11-25T01:22:33.997Z,2.70
2023-11-25T01:25:01.092Z,2.90
2023-11-25T01:27:29.495Z,2.90
2023-11-25T01:29:56.650Z,2.80
2023-11-25T01:32:23.771Z,3.40
2023-11-25T01:34:50.920Z,2.67
2023-11-25T01:37:18.539Z,3.23
2023-11-25T01:39:45.699Z,4.17
2023-11-25T01:42:12.843Z,3.03
2023-11-25T01:44:41.323Z,3.10
2023-11-25T01:47:09.055Z,3.23
2023-11-25T01:49:36.688Z,3.20
2023-11-25T01:52:04.239Z,5.13
2023-11-25T01:54:31.722Z,3.63
2023-11-25T01:57:00.210Z,3.67
2023-11-25T01:59:28.457Z,4.40
2023-11-25T02:01:57.869Z,4.20
2023-11-25T02:04:25.212Z,3.50
2023-11-25T02:06:52.376Z,4.40
2023-11-25T02:09:19.503Z,3.17
2023-11-25T02:11:59.446Z,4.30
2023-11-25T02:14:27.162Z,3.17
2023-11-25T02:16:54.848Z,3.50
2023-11-25T02:19:23.642Z,4.23
2023-11-25T02:21:50.834Z,3.30
2023-11-25T02:24:19.269Z,3.60
2023-11-25T02:26:46.350Z,3.70
2023-11-25T02:29:13.413Z,3.70
2023-11-25T02:31:40.554Z,3.60
2023-11-25T02:34:07.864Z,3.23
2023-11-25T02:36:35.070Z,3.93
2023-11-25T02:39:02.997Z,2.90
2023-11-25T02:41:31.645Z,3.10
2023-11-25T02:43:58.802Z,4.30
2023-11-25T02:46:26.042Z,3.30
2023-11-25T02:48:53.211Z,4.80
2023-11-25T02:51:21.326Z,3.20
2023-11-25T02:53:49.259Z,2.77
2023-11-25T02:56:16.470Z,2.63
2023-11-25T02:58:45.069Z,3.43
2023-11-25T03:01:12.425Z,3.00
2023-11-25T03:03:39.682Z,4.10
2023-11-25T03:06:07.089Z,3.50
2023-11-25T03:08:34.301Z,3.50
2023-11-25T03:11:01.390Z,3.17
2023-11-25T03:13:28.521Z,4.87
2023-11-25T03:15:56.964Z,4.07
2023-11-25T03:18:24.071Z,3.30
2023-11-25T03:20:51.124Z,3.57
2023-11-25T03:23:18.221Z,3.10
2023-11-25T03:25:45.382Z,3.30
2023-11-25T03:28:12.618Z,2.60
2023-11-25T03:30:39.955Z,2.77
2023-11-25T03:33:08.487Z,5.43
2023-11-25T03:35:35.567Z,3.30
2023-11-25T03:38:02.732Z,4.57
2023-11-25T03:40:29.815Z,3.13
2023-11-25T03:42:56.927Z,4.00
2023-11-25T03:45:24.024Z,3.00
2023-11-25T03:47:51.160Z,3.63
2023-11-25T03:50:20.133Z,4.20
2023-11-25T03:52:47.361Z,3.70
2023-11-25T03:55:14.651Z,3.80
2023-11-25T03:57:41.821Z,4.20
2023-11-25T04:00:09.287Z,2.87
2023-11-25T04:02:38.654Z,4.07
2023-11-25T04:05:06.324Z,3.60
2023-11-25T04:07:34.767Z,4.03
2023-11-25T04:10:01.868Z,4.17
2023-11-25T04:12:28.917Z,4.50
2023-11-25T04:14:56.002Z,3.57
2023-11-25T04:17:23.533Z,4.33
2023-11-25T04:19:50.761Z,2.53
2023-11-25T04:22:17.909Z,3.93
2023-11-25T04:24:47.122Z,4.10
2023-11-25T04:27:14.262Z,3.83
2023-11-25T04:29:41.999Z,2.87
2023-11-25T04:32:09.139Z,5.00
2023-11-25T04:34:36.309Z,3.43
2023-11-25T04:37:03.409Z,3.70
2023-11-25T04:39:30.509Z,5.10
2023-11-25T04:41:59.004Z,3.87
2023-11-25T04:44:26.154Z,4.37
2023-11-25T04:46:53.395Z,3.20
2023-11-25T04:49:20.539Z,3.70
2023-11-25T04:51:47.730Z,4.70
2023-11-25T04:54:14.798Z,3.90
2023-11-25T04:56:41.921Z,4.10
2023-11-25T04:59:10.385Z,3.77
2023-11-25T05:01:37.569Z,4.83
2023-11-25T05:04:04.994Z,3.60
2023-11-25T05:06:32.073Z,3.83
2023-11-25T05:08:59.205Z,3.10
2023-11-25T05:11:26.329Z,3.43
2023-11-25T05:13:53.438Z,3.50
2023-11-25T05:16:21.984Z,3.43
2023-11-25T05:18:49.120Z,3.80
2023-11-25T05:21:16.261Z,3.93
2023-11-25T05:23:43.320Z,2.50
2023-11-25T05:26:10.429Z,5.83
2023-11-25T05:28:37.539Z,3.70
2023-11-25T05:31:04.755Z,4.20
2023-11-25T05:33:34.313Z,4.00
2023-11-25T05:36:01.421Z,3.43
2023-11-25T05:38:28.692Z,3.23
2023-11-25T05:40:56.119Z,3.27
2023-11-25T05:43:24.052Z,3.10
2023-11-25T05:45:51.224Z,2.83
2023-11-25T05:48:18.320Z,3.40
2023-11-25T05:50:46.768Z,3.43
2023-11-25T05:53:13.844Z,3.80
2023-11-25T05:55:40.971Z,3.80
2023-11-25T05:58:08.130Z,2.60
2023-11-25T06:00:35.269Z,4.17
2023-11-25T06:03:02.415Z,4.00
2023-11-25T06:05:29.590Z,4.27
2023-11-25T06:07:58.303Z,5.27
2023-11-25T06:10:25.452Z,3.20
2023-11-25T06:12:52.584Z,3.27
2023-11-25T06:15:19.700Z,3.40
2023-11-25T06:17:46.920Z,3.83
2023-11-25T06:20:14.334Z,2.93
2023-11-25T06:22:41.441Z,3.40
2023-11-25T06:25:10.395Z,3.00
2023-11-25T06:27:37.468Z,3.30
2023-11-25T06:30:04.923Z,3.33
2023-11-25T06:32:32.016Z,3.80
2023-11-25T06:34:59.155Z,4.47
2023-11-25T06:37:26.324Z,4.10
2023-11-25T06:39:53.466Z,4.27
2023-11-25T06:42:21.930Z,3.80
2023-11-25T06:44:49.103Z,4.60
2023-11-25T06:47:16.317Z,5.30
2023-11-25T06:49:44.995Z,3.70
2023-11-25T06:52:12.120Z,3.80
2023-11-25T06:54:39.244Z,3.23
2023-11-25T06:57:06.625Z,3.47
2023-11-25T06:59:35.121Z,3.77
2023-11-25T07:02:02.447Z,5.00
2023-11-25T07:04:29.609Z,4.93
2023-11-25T07:06:56.719Z,3.57
2023-11-25T07:09:23.796Z,3.40
2023-11-25T07:11:50.892Z,4.23
2023-11-25T07:14:18.101Z,4.07
2023-11-25T07:16:46.753Z,3.37
2023-11-25T07:19:13.973Z,4.00
2023-11-25T07:21:41.165Z,2.80
2023-11-25T07:24:08.663Z,3.47
2023-11-25T07:26:35.720Z,4.10
2023-11-25T07:29:02.782Z,2.97
2023-11-25T07:31:30.026Z,3.40
2023-11-25T07:33:58.510Z,4.20
2023-11-25T07:36:25.626Z,3.63
2023-11-25T07:38:52.817Z,4.47
2023-11-25T07:41:19.940Z,3.13
2023-11-25T07:43:47.121Z,3.50
2023-11-25T07:46:14.324Z,3.23
2023-11-25T07:48:41.522Z,3.73
2023-11-25T07:51:09.894Z,4.17
2023-11-25T07:53:36.981Z,3.50
2023-11-25T07:56:04.104Z,3.07
2023-11-25T07:58:31.237Z,4.33
2023-11-25T08:00:58.349Z,2.83
2023-11-25T08:03:25.533Z,3.60
2023-11-25T08:05:52.662Z,2.80
2023-11-25T08:08:21.112Z,3.60
2023-11-25T08:10:48.333Z,2.83
2023-11-25T08:13:15.495Z,2.90
2023-11-25T08:15:42.703Z,3.00
2023-11-25T08:18:09.842Z,3.20
2023-11-25T08:20:36.917Z,2.73
2023-11-25T08:23:04.013Z,2.50
2023-11-25T08:25:32.491Z,3.20
2023-11-25T08:27:59.617Z,2.47
2023-11-25T08:30:26.735Z,2.13
2023-11-25T08:32:53.919Z,2.43
2023-11-25T08:35:21.056Z,2.80
2023-11-25T08:37:48.179Z,2.20
2023-11-25T08:40:15.228Z,2.60
2023-11-25T08:42:43.659Z,2.40
2023-11-25T08:45:11.123Z,3.37
2023-11-25T08:47:38.239Z,1.97
2023-11-25T08:50:05.781Z,2.50
2023-11-25T08:52:32.900Z,3.00
2023-11-25T08:55:00.004Z,2.90
2023-11-25T08:57:27.125Z,3.17
2023-11-25T08:59:55.630Z,2.53
2023-11-25T09:02:22.994Z,3.17
2023-11-25T09:05:03.034Z,3.23
2023-11-25T09:07:35.889Z,3.40
2023-11-25T09:10:03.512Z,2.80
2023-11-25T09:12:30.606Z,2.30
2023-11-25T09:14:59.053Z,2.37
2023-11-25T09:17:26.130Z,3.07
2023-11-25T09:19:53.320Z,2.97
2023-11-25T09:22:20.474Z,2.43
2023-11-25T09:24:47.591Z,3.07
2023-11-25T09:27:14.887Z,2.70
2023-11-25T09:29:42.047Z,2.70
2023-11-25T09:32:10.486Z,2.80
2023-11-25T09:34:37.634Z,2.80
2023-11-25T09:37:04.909Z,2.87
2023-11-25T09:39:32.109Z,2.47
2023-11-25T09:41:59.455Z,2.90
2023-11-25T09:44:27.126Z,2.63
2023-11-25T09:46:54.268Z,3.30
2023-11-25T09:49:22.732Z,3.77
2023-11-25T09:51:49.943Z,3.07
2023-11-25T09:54:20.572Z,2.93
2023-11-25T09:56:48.977Z,2.60
2023-11-25T09:59:16.538Z,3.17
2023-11-25T10:01:44.073Z,2.47
2023-11-25T10:04:13.189Z,2.20
2023-11-25T10:06:41.639Z,3.90
2023-11-25T10:09:08.846Z,2.10
2023-11-25T10:11:35.907Z,2.47
2023-11-25T10:14:03.374Z,2.87
2023-11-25T10:16:30.654Z,2.50
2023-11-25T10:18:57.874Z,2.63
2023-11-25T10:21:24.997Z,2.37
2023-11-25T10:23:54.724Z,2.50
2023-11-25T10:26:22.555Z,3.47
2023-11-25T10:28:49.891Z,2.10
2023-11-25T10:31:17.006Z,2.73
2023-11-25T10:33:44.259Z,2.23
2023-11-25T10:36:11.526Z,2.10
2023-11-25T10:38:40.258Z,1.90
2023-11-25T10:41:08.856Z,1.93
2023-11-25T10:43:36.106Z,2.90
2023-11-25T10:46:03.706Z,2.80
2023-11-25T10:48:31.127Z,2.57
2023-11-25T10:50:58.324Z,2.27
2023-11-25T10:53:28.535Z,2.27
2023-11-25T10:55:56.116Z,2.97
2023-11-25T10:58:25.392Z,2.90
2023-11-25T11:00:52.651Z,1.80
2023-11-25T11:03:22.078Z,2.43
2023-11-25T11:05:51.234Z,2.27
2023-11-25T11:08:21.321Z,2.57
2023-11-25T11:10:54.668Z,2.30
2023-11-25T11:13:24.435Z,1.80
2023-11-25T11:15:53.830Z,3.00
2023-11-25T11:18:24.619Z,1.97
2023-11-25T11:20:52.351Z,1.70
2023-11-25T11:23:20.105Z,2.17
2023-11-25T11:25:50.584Z,1.73
2023-11-25T11:28:21.151Z,1.90
2023-11-25T11:30:51.802Z,1.93
2023-11-25T11:33:20.469Z,1.83
2023-11-25T11:35:48.314Z,2.40
2023-11-25T11:38:25.244Z,2.47
2023-11-25T11:40:55.596Z,2.00
2023-11-25T11:43:22.707Z,2.60
2023-11-25T11:45:49.993Z,2.50
2023-11-25T11:48:17.085Z,2.50
2023-11-25T11:50:46.015Z,2.70
2023-11-25T11:53:13.542Z,1.73
2023-11-25T11:55:41.545Z,2.67
2023-11-25T11:58:09.593Z,1.93
2023-11-25T12:00:37.506Z,2.20
2023-11-25T12:03:04.707Z,2.17
2023-11-25T12:05:31.865Z,1.93
2023-11-25T12:08:00.337Z,1.97
2023-11-25T12:10:27.432Z,1.80
2023-11-25T12:12:54.604Z,2.03
2023-11-25T12:15:21.942Z,2.43
2023-11-25T12:17:49.177Z,2.83
2023-11-25T12:20:16.561Z,2.67
2023-11-25T12:22:44.349Z,2.47
2023-11-25T12:25:12.898Z,2.60
2023-11-25T12:27:40.338Z,2.47
2023-11-25T12:30:08.233Z,3.33
2023-11-25T12:32:35.437Z,3.20
2023-11-25T12:35:02.602Z,2.50
2023-11-25T12:37:29.752Z,2.57
2023-11-25T12:39:56.823Z,2.80
2023-11-25T12:42:25.473Z,3.20
2023-11-25T12:44:52.776Z,2.63
2023-11-25T12:47:20.141Z,2.77
2023-11-25T12:49:47.332Z,3.33
2023-11-25T12:52:20.843Z,3.03
2023-11-25T12:54:48.026Z,2.17
2023-11-25T12:57:15.090Z,3.57
2023-11-25T12:59:43.541Z,2.97
2023-11-25T13:02:11.867Z,2.70
2023-11-25T13:04:44.240Z,2.90
2023-11-25T13:07:11.381Z,2.97
2023-11-25T13:09:38.466Z,2.50
2023-11-25T13:12:05.756Z,3.50
2023-11-25T13:14:32.915Z,2.93
2023-11-25T13:17:01.497Z,3.00
2023-11-25T13:19:28.654Z,2.80
2023-11-25T13:21:55.839Z,2.73
2023-11-25T13:24:22.945Z,2.60
2023-11-25T13:26:50.114Z,2.30
2023-11-25T13:29:17.242Z,2.30
2023-11-25T13:31:44.396Z,2.40
2023-11-25T13:34:12.841Z,2.40
2023-11-25T13:36:40.055Z,2.43
2023-11-25T13:39:07.141Z,3.97
2023-11-25T13:41:34.261Z,3.17
2023-11-25T13:44:01.394Z,2.83
2023-11-25T13:46:28.575Z,2.70
2023-11-25T13:48:55.760Z,3.57
2023-11-25T13:51:24.205Z,3.90
2023-11-25T13:53:51.288Z,3.53
2023-11-25T13:56:18.360Z,3.60
2023-11-25T13:58:45.418Z,4.20
2023-11-25T14:01:12.582Z,4.07
2023-11-25T14:03:39.638Z,3.97
2023-11-25T14:06:06.934Z,3.40
2023-11-25T14:08:35.354Z,3.57
2023-11-25T14:11:02.482Z,2.80
2023-11-25T14:13:32.110Z,3.43
2023-11-25T14:15:59.352Z,2.97
2023-11-25T14:18:26.496Z,4.23
2023-11-25T14:20:53.587Z,3.40
2023-11-25T14:23:20.644Z,2.70
2023-11-25T14:25:49.088Z,2.30
2023-11-25T14:28:16.295Z,3.70
2023-11-25T14:30:43.342Z,2.30
2023-11-25T14:33:10.507Z,1.87
2023-11-25T14:35:37.609Z,2.60
2023-11-25T14:38:04.878Z,2.17
2023-11-25T14:40:32.357Z,2.50
2023-11-25T14:43:00.852Z,2.30
2023-11-25T14:45:27.999Z,2.30
2023-11-25T14:47:55.122Z,3.10
2023-11-25T14:50:22.370Z,3.07
2023-11-25T14:52:49.490Z,2.40
2023-11-25T14:55:16.670Z,2.30
2023-11-25T14:57:43.744Z,2.20
2023-11-25T15:00:12.757Z,3.00
2023-11-25T15:02:41.194Z,2.90
2023-11-25T15:05:08.625Z,2.53
2023-11-25T15:07:35.745Z,2.33
2023-11-25T15:10:02.926Z,2.87
2023-11-25T15:12:29.978Z,2.70
2023-11-25T15:14:57.043Z,2.67
2023-11-25T15:17:25.524Z,2.80
2023-11-25T15:19:52.727Z,3.07
2023-11-25T15:22:19.837Z,3.10
2023-11-25T15:24:46.946Z,3.60
2023-11-25T15:27:14.137Z,3.10
2023-11-25T15:29:41.237Z,2.77
2023-11-25T15:32:08.445Z,4.17
2023-11-25T15:34:36.938Z,3.00
2023-11-25T15:37:04.118Z,4.20
2023-11-25T15:39:31.215Z,2.37
2023-11-25T15:41:58.250Z,2.53
2023-11-25T15:44:25.392Z,2.37
2023-11-25T15:46:52.482Z,1.80
2023-11-25T15:49:19.595Z,2.80
2023-11-25T15:51:48.046Z,2.47
2023-11-25T15:54:15.177Z,1.80
2023-11-25T15:56:42.294Z,2.13
2023-11-25T15:59:09.439Z,2.40
2023-11-25T16:01:36.685Z,2.63
2023-11-25T16:04:04.170Z,2.47
2023-11-25T16:06:31.322Z,2.50
2023-11-25T16:08:59.778Z,2.80
2023-11-25T16:11:26.920Z,2.40
2023-11-25T16:13:54.012Z,4.53
2023-11-25T16:16:21.194Z,2.80
2023-11-25T16:18:48.456Z,2.77
2023-11-25T16:21:15.583Z,3.10
2023-11-25T16:23:45.088Z,2.80
2023-11-25T16:26:13.720Z,3.23
2023-11-25T16:28:41.147Z,2.50
2023-11-25T16:31:11.200Z,2.80
2023-11-25T16:33:38.797Z,3.13
2023-11-25T16:36:06.290Z,3.67
2023-11-25T16:38:33.353Z,2.87
2023-11-25T16:41:00.524Z,2.77
2023-11-25T16:43:28.960Z,3.20
2023-11-25T16:45:56.061Z,2.80
2023-11-25T16:48:32.197Z,3.17
2023-11-25T16:51:05.602Z,2.83
2023-11-25T16:53:32.702Z,3.70
2023-11-25T16:55:59.869Z,3.57
2023-11-25T16:58:28.351Z,3.03
2023-11-25T17:00:55.470Z,3.20
2023-11-25T17:03:22.878Z,3.10
2023-11-25T17:05:50.193Z,2.93
2023-11-25T17:08:17.247Z,3.33
2023-11-25T17:10:44.350Z,2.30
2023-11-25T17:13:11.450Z,4.03
2023-11-25T17:15:39.895Z,4.10
2023-11-25T17:18:06.978Z,2.03
2023-11-25T17:20:34.125Z,1.77
2023-11-25T17:23:01.199Z,2.63
2023-11-25T17:25:29.319Z,1.77
2023-11-25T17:27:56.854Z,2.00
2023-11-25T17:30:23.933Z,1.50
2023-11-25T17:32:52.402Z,1.67
2023-11-25T17:35:19.543Z,1.97
2023-11-25T17:37:46.653Z,2.07
2023-11-25T17:40:14.058Z,1.57
2023-11-25T17:42:41.164Z,2.03
2023-11-25T17:45:08.991Z,3.50
2023-11-25T17:47:36.090Z,3.77
2023-11-25T17:50:04.853Z,4.30
2023-11-25T17:52:31.969Z,4.10
2023-11-25T17:54:59.063Z,4.73
2023-11-25T17:57:26.160Z,4.87
2023-11-25T17:59:53.258Z,5.87
2023-11-25T18:02:20.475Z,6.60
2023-11-25T18:04:47.690Z,6.60
2023-11-25T18:07:16.102Z,8.27
2023-11-25T18:09:43.149Z,6.57
2023-11-25T18:12:10.352Z,7.67
2023-11-25T18:14:37.697Z,6.40
2023-11-25T18:17:05.017Z,7.03
2023-11-25T18:19:32.175Z,8.23
2023-11-25T18:21:59.257Z,7.80
2023-11-25T18:24:27.659Z,9.00
2023-11-25T18:26:54.759Z,8.40
2023-11-25T18:29:21.923Z,7.00
2023-11-25T18:31:49.166Z,6.63
2023-11-25T18:34:16.313Z,7.53
2023-11-25T18:36:43.357Z,8.00
2023-11-25T18:39:10.484Z,7.73
2023-11-25T18:41:38.897Z,7.60
2023-11-25T18:44:06.241Z,6.73
2023-11-25T18:46:33.446Z,7.17
2023-11-25T18:49:00.581Z,8.07
2023-11-25T18:51:27.682Z,7.10
2023-11-25T18:53:54.824Z,5.33
2023-11-25T18:56:21.935Z,6.03
2023-11-25T18:58:50.483Z,5.13
2023-11-25T19:01:27.646Z,5.67
2023-11-25T19:03:54.750Z,4.40
2023-11-25T19:06:21.807Z,4.17
2023-11-25T19:08:48.977Z,4.80
2023-11-25T19:11:16.150Z,6.70
2023-11-25T19:13:43.278Z,5.23
2023-11-25T19:16:13.697Z,5.63
2023-11-25T19:18:40.957Z,5.13
2023-11-25T19:21:10.474Z,4.60
2023-11-25T19:23:37.619Z,5.57
2023-11-25T19:26:04.787Z,5.07
2023-11-25T19:28:32.016Z,4.53
2023-11-25T19:30:59.121Z,4.70
2023-11-25T19:33:27.668Z,4.37
2023-11-25T19:35:54.806Z,4.17
2023-11-25T19:38:21.879Z,4.60
2023-11-25T19:40:48.998Z,5.00
2023-11-25T19:43:16.172Z,5.40
2023-11-25T19:45:43.255Z,4.57
2023-11-25T19:48:10.423Z,5.40
2023-11-25T19:50:38.942Z,5.90
2023-11-25T19:53:06.055Z,5.60
2023-11-25T19:55:33.180Z,5.60
2023-11-25T19:58:00.270Z,5.83
2023-11-25T20:00:27.321Z,4.40
2023-11-25T20:02:54.514Z,4.70
2023-11-25T20:05:21.741Z,5.00
2023-11-25T20:07:50.339Z,5.63
2023-11-25T20:10:17.576Z,6.20
2023-11-25T20:12:44.710Z,5.57
2023-11-25T20:15:11.908Z,5.97
2023-11-25T20:17:39.133Z,5.63
2023-11-25T20:20:06.982Z,4.77
2023-11-25T20:22:34.144Z,4.60
2023-11-25T20:25:02.581Z,6.73
2023-11-25T20:27:29.623Z,5.73
2023-11-25T20:29:56.717Z,6.07
2023-11-25T20:32:23.851Z,5.57
2023-11-25T20:34:51.004Z,5.43
2023-11-25T20:37:18.144Z,6.50
2023-11-25T20:39:45.293Z,5.97
2023-11-25T20:42:13.672Z,5.93
2023-11-25T20:44:40.816Z,5.40
2023-11-25T20:47:08.000Z,5.03
2023-11-25T20:49:35.165Z,5.63
2023-11-25T20:52:02.279Z,5.77
2023-11-25T20:54:29.385Z,5.33
2023-11-25T20:56:56.459Z,5.83
2023-11-25T20:59:24.964Z,4.80
2023-11-25T21:01:52.059Z,6.03
2023-11-25T21:04:19.278Z,5.90
2023-11-25T21:06:46.412Z,6.33
2023-11-25T21:09:13.607Z,5.23
2023-11-25T21:11:40.704Z,4.70
2023-11-25T21:14:07.820Z,5.10
2023-11-25T21:16:36.909Z,5.50
2023-11-25T21:19:03.961Z,4.57
2023-11-25T21:21:31.090Z,4.97
2023-11-25T21:23:58.184Z,4.93
2023-11-25T21:26:25.300Z,4.90
2023-11-25T21:28:52.409Z,5.00
2023-11-25T21:31:19.480Z,5.00
2023-11-25T21:33:47.918Z,5.43
2023-11-25T21:36:15.038Z,4.63
2023-11-25T21:38:42.147Z,5.93
2023-11-25T21:41:10.064Z,6.23
2023-11-25T21:43:37.200Z,5.53
2023-11-25T21:46:04.393Z,4.80
2023-11-25T21:48:31.474Z,4.80
2023-11-25T21:50:59.904Z,6.13
2023-11-25T21:53:27.070Z,5.00
2023-11-25T21:55:54.244Z,4.97
2023-11-25T21:58:21.357Z,5.90
2023-11-25T22:00:48.586Z,5.43
2023-11-25T22:03:15.825Z,5.90
2023-11-25T22:05:43.048Z,6.50
2023-11-25T22:08:11.533Z,6.33
2023-11-25T22:10:38.733Z,5.77
2023-11-25T22:13:05.821Z,6.53
2023-11-25T22:15:32.904Z,6.07
2023-11-25T22:18:00.014Z,5.40
2023-11-25T22:20:27.195Z,5.70
2023-11-25T22:22:54.324Z,6.73
2023-11-25T22:25:22.734Z,5.80
2023-11-25T22:27:49.775Z,6.30
2023-11-25T22:30:16.958Z,5.53
2023-11-25T22:32:44.189Z,5.80
2023-11-25T22:35:11.381Z,5.83
2023-11-25T22:37:38.418Z,5.97
2023-11-25T22:40:05.968Z,6.07
2023-11-25T22:42:34.434Z,5.83
2023-11-25T22:45:01.563Z,6.57
2023-11-25T22:47:28.645Z,5.30
2023-11-25T22:49:55.756Z,5.60
2023-11-25T22:52:22.844Z,6.23
2023-11-25T22:54:49.945Z,4.80
2023-11-25T22:57:17.024Z,4.57
2023-11-25T22:59:45.425Z,5.40
2023-11-25T23:02:13.726Z,5.50
2023-11-25T23:04:42.416Z,5.77
2023-11-25T23:07:09.621Z,5.73
2023-11-25T23:09:36.678Z,4.63
2023-11-25T23:12:03.896Z,5.20
2023-11-25T23:14:31.717Z,5.00
2023-11-25T23:17:00.298Z,5.87
2023-11-25T23:19:27.439Z,7.00
2023-11-25T23:21:54.518Z,5.37
2023-11-25T23:24:21.640Z,5.77
2023-11-25T23:26:48.760Z,5.50
2023-11-25T23:29:15.894Z,4.80
2023-11-25T23:31:43.088Z,6.17
2023-11-25T23:34:11.611Z,5.83
2023-11-25T23:36:38.729Z,5.80
2023-11-25T23:39:05.857Z,6.20
2023-11-25T23:41:32.912Z,5.77
2023-11-25T23:44:00.036Z,5.40
2023-11-25T23:46:27.251Z,6.07
2023-11-25T23:48:54.413Z,4.83
2023-11-25T23:51:22.893Z,6.20
2023-11-25T23:53:49.949Z,4.37
2023-11-25T23:56:17.142Z,5.20
2023-11-25T23:58:44.383Z,4.47
